sensor_id;sensor_type;location;lat;lon;timestamp;P1;durP1;ratioP1;P2;durP2;ratioP2
68234;SDS011;55052;52.056;5.296;2023-05-15T00:02:15;19.05;;;12.27;;
68234;SDS011;55052;52.056;5.296;2023-05-15T00:04:42;20.45;;;12.52;;
68234;SDS011;55052;52.056;5.296;2023-05-15T00:07:08;19.88;;;13.65;;
68234;SDS011;55052;52.056;5.296;2023-05-15T00:09:36;22.00;;;13.15;;
68234;SDS011;55052;52.056;5.296;2023-05-15T00:12:02;24.23;;;14.18;;
68234;SDS011;55052;52.056;5.296;2023-05-15T00:14:29;22.80;;;13.77;;
68234;SDS011;55052;52.056;5.296;2023-05-15T00:16:56;22.65;;;14.30;;
68234;SDS011;55052;52.056;5.296;2023-05-15T00:19:23;20.88;;;13.68;;
68234;SDS011;55052;52.056;5.296;2023-05-15T00:21:49;27.73;;;14.52;;
68234;SDS011;55052;52.056;5.296;2023-05-15T00:24:16;20.92;;;13.63;;
68234;SDS011;55052;52.056;5.296;2023-05-15T00:26:44;23.88;;;13.68;;
68234;SDS011;55052;52.056;5.296;2023-05-15T00:29:11;21.13;;;14.43;;
68234;SDS011;55052;52.056;5.296;2023-05-15T00:31:38;23.77;;;13.93;;
68234;SDS011;55052;52.056;5.296;2023-05-15T00:34:04;21.50;;;13.38;;
68234;SDS011;55052;52.056;5.296;2023-05-15T00:36:31;24.15;;;13.80;;
68234;SDS011;55052;52.056;5.296;2023-05-15T00:38:58;24.75;;;14.90;;
68234;SDS011;55052;52.056;5.296;2023-05-15T00:41:25;23.88;;;14.40;;
68234;SDS011;55052;52.056;5.296;2023-05-15T00:43:54;24.48;;;14.02;;
68234;SDS011;55052;52.056;5.296;2023-05-15T00:46:21;25.08;;;14.85;;
68234;SDS011;55052;52.056;5.296;2023-05-15T00:48:50;22.35;;;14.40;;
68234;SDS011;55052;52.056;5.296;2023-05-15T00:51:18;23.75;;;14.82;;
68234;SDS011;55052;52.056;5.296;2023-05-15T00:53:45;26.23;;;15.70;;
68234;SDS011;55052;52.056;5.296;2023-05-15T00:56:12;22.75;;;15.40;;
68234;SDS011;55052;52.056;5.296;2023-05-15T00:58:42;23.27;;;13.52;;
68234;SDS011;55052;52.056;5.296;2023-05-15T01:01:13;24.85;;;14.30;;
68234;SDS011;55052;52.056;5.296;2023-05-15T01:03:41;26.70;;;15.02;;
68234;SDS011;55052;52.056;5.296;2023-05-15T01:06:10;24.35;;;15.27;;
68234;SDS011;55052;52.056;5.296;2023-05-15T01:08:38;21.52;;;14.45;;
68234;SDS011;55052;52.056;5.296;2023-05-15T01:11:15;27.30;;;16.23;;
68234;SDS011;55052;52.056;5.296;2023-05-15T01:13:43;23.88;;;14.77;;
68234;SDS011;55052;52.056;5.296;2023-05-15T01:16:10;23.02;;;14.25;;
68234;SDS011;55052;52.056;5.296;2023-05-15T01:18:37;26.33;;;15.50;;
68234;SDS011;55052;52.056;5.296;2023-05-15T01:21:09;23.75;;;14.73;;
68234;SDS011;55052;52.056;5.296;2023-05-15T01:37:43;22.30;;;13.90;;
68234;SDS011;55052;52.056;5.296;2023-05-15T01:40:15;23.30;;;14.23;;
68234;SDS011;55052;52.056;5.296;2023-05-15T01:42:49;23.58;;;14.00;;
68234;SDS011;55052;52.056;5.296;2023-05-15T01:45:20;22.88;;;13.68;;
68234;SDS011;55052;52.056;5.296;2023-05-15T01:47:51;23.90;;;14.48;;
68234;SDS011;55052;52.056;5.296;2023-05-15T01:50:19;28.27;;;14.95;;
68234;SDS011;55052;52.056;5.296;2023-05-15T01:52:48;26.70;;;15.60;;
68234;SDS011;55052;52.056;5.296;2023-05-15T01:55:17;26.48;;;16.38;;
68234;SDS011;55052;52.056;5.296;2023-05-15T01:57:45;25.33;;;16.50;;
68234;SDS011;55052;52.056;5.296;2023-05-15T02:00:15;25.83;;;16.77;;
68234;SDS011;55052;52.056;5.296;2023-05-15T02:02:43;30.63;;;19.60;;
68234;SDS011;55052;52.056;5.296;2023-05-15T02:05:11;30.98;;;20.38;;
68234;SDS011;55052;52.056;5.296;2023-05-15T02:07:42;34.70;;;21.23;;
68234;SDS011;55052;52.056;5.296;2023-05-15T02:12:39;36.60;;;22.25;;
68234;SDS011;55052;52.056;5.296;2023-05-15T02:15:10;39.40;;;23.23;;
68234;SDS011;55052;52.056;5.296;2023-05-15T02:17:38;41.47;;;23.70;;
68234;SDS011;55052;52.056;5.296;2023-05-15T02:20:05;37.97;;;24.13;;
68234;SDS011;55052;52.056;5.296;2023-05-15T02:22:33;41.03;;;24.80;;
68234;SDS011;55052;52.056;5.296;2023-05-15T02:25:00;40.00;;;24.00;;
68234;SDS011;55052;52.056;5.296;2023-05-15T02:27:28;36.75;;;23.27;;
68234;SDS011;55052;52.056;5.296;2023-05-15T02:32:50;42.40;;;24.23;;
68234;SDS011;55052;52.056;5.296;2023-05-15T02:36:01;40.92;;;23.17;;
68234;SDS011;55052;52.056;5.296;2023-05-15T02:38:38;38.97;;;23.35;;
68234;SDS011;55052;52.056;5.296;2023-05-15T02:41:10;38.38;;;23.20;;
68234;SDS011;55052;52.056;5.296;2023-05-15T02:43:38;38.58;;;22.30;;
68234;SDS011;55052;52.056;5.296;2023-05-15T02:46:06;43.65;;;23.52;;
68234;SDS011;55052;52.056;5.296;2023-05-15T02:48:34;36.30;;;22.52;;
68234;SDS011;55052;52.056;5.296;2023-05-15T02:51:05;40.33;;;23.25;;
68234;SDS011;55052;52.056;5.296;2023-05-15T02:53:33;41.35;;;24.70;;
68234;SDS011;55052;52.056;5.296;2023-05-15T02:56:07;41.78;;;23.90;;
68234;SDS011;55052;52.056;5.296;2023-05-15T02:58:35;40.83;;;23.38;;
68234;SDS011;55052;52.056;5.296;2023-05-15T03:01:02;41.53;;;23.85;;
68234;SDS011;55052;52.056;5.296;2023-05-15T03:03:29;39.25;;;23.73;;
68234;SDS011;55052;52.056;5.296;2023-05-15T03:05:56;38.92;;;24.83;;
68234;SDS011;55052;52.056;5.296;2023-05-15T03:08:23;38.47;;;24.15;;
68234;SDS011;55052;52.056;5.296;2023-05-15T03:10:50;44.40;;;24.13;;
68234;SDS011;55052;52.056;5.296;2023-05-15T03:13:17;38.58;;;23.88;;
68234;SDS011;55052;52.056;5.296;2023-05-15T03:15:44;41.13;;;25.27;;
68234;SDS011;55052;52.056;5.296;2023-05-15T03:18:11;42.78;;;23.38;;
68234;SDS011;55052;52.056;5.296;2023-05-15T03:20:37;39.55;;;24.65;;
68234;SDS011;55052;52.056;5.296;2023-05-15T03:23:04;38.65;;;23.90;;
68234;SDS011;55052;52.056;5.296;2023-05-15T03:25:31;47.28;;;23.27;;
68234;SDS011;55052;52.056;5.296;2023-05-15T03:27:58;39.53;;;23.55;;
68234;SDS011;55052;52.056;5.296;2023-05-15T03:30:24;50.90;;;26.30;;
68234;SDS011;55052;52.056;5.296;2023-05-15T03:32:51;44.10;;;25.17;;
68234;SDS011;55052;52.056;5.296;2023-05-15T03:35:18;41.65;;;24.27;;
68234;SDS011;55052;52.056;5.296;2023-05-15T03:37:45;43.42;;;25.02;;
68234;SDS011;55052;52.056;5.296;2023-05-15T03:40:12;40.13;;;23.42;;
68234;SDS011;55052;52.056;5.296;2023-05-15T03:42:39;44.42;;;24.08;;
68234;SDS011;55052;52.056;5.296;2023-05-15T03:45:06;47.28;;;25.42;;
68234;SDS011;55052;52.056;5.296;2023-05-15T03:47:33;43.40;;;24.50;;
68234;SDS011;55052;52.056;5.296;2023-05-15T03:50:00;47.13;;;24.10;;
68234;SDS011;55052;52.056;5.296;2023-05-15T03:52:27;43.40;;;25.05;;
68234;SDS011;55052;52.056;5.296;2023-05-15T03:54:53;45.33;;;23.77;;
68234;SDS011;55052;52.056;5.296;2023-05-15T03:57:20;48.33;;;26.13;;
68234;SDS011;55052;52.056;5.296;2023-05-15T03:59:47;49.95;;;25.77;;
68234;SDS011;55052;52.056;5.296;2023-05-15T04:02:14;50.83;;;26.52;;
68234;SDS011;55052;52.056;5.296;2023-05-15T04:04:40;46.55;;;24.90;;
68234;SDS011;55052;52.056;5.296;2023-05-15T04:07:09;45.88;;;24.30;;
68234;SDS011;55052;52.056;5.296;2023-05-15T04:09:36;46.30;;;24.38;;
68234;SDS011;55052;52.056;5.296;2023-05-15T04:12:03;44.45;;;25.08;;
68234;SDS011;55052;52.056;5.296;2023-05-15T04:14:30;43.53;;;23.48;;
68234;SDS011;55052;52.056;5.296;2023-05-15T04:16:57;45.97;;;24.25;;
68234;SDS011;55052;52.056;5.296;2023-05-15T04:19:24;46.92;;;25.23;;
68234;SDS011;55052;52.056;5.296;2023-05-15T04:21:51;43.25;;;23.88;;
68234;SDS011;55052;52.056;5.296;2023-05-15T04:24:17;42.85;;;23.63;;
68234;SDS011;55052;52.056;5.296;2023-05-15T04:26:44;42.38;;;22.80;;
68234;SDS011;55052;52.056;5.296;2023-05-15T04:29:11;40.28;;;23.02;;
68234;SDS011;55052;52.056;5.296;2023-05-15T04:31:38;42.97;;;23.38;;
68234;SDS011;55052;52.056;5.296;2023-05-15T04:34:05;41.65;;;21.95;;
68234;SDS011;55052;52.056;5.296;2023-05-15T04:36:32;45.72;;;24.63;;
68234;SDS011;55052;52.056;5.296;2023-05-15T04:38:59;42.38;;;23.35;;
68234;SDS011;55052;52.056;5.296;2023-05-15T04:41:26;42.17;;;22.80;;
68234;SDS011;55052;52.056;5.296;2023-05-15T04:43:52;46.95;;;26.48;;
68234;SDS011;55052;52.056;5.296;2023-05-15T04:46:19;43.38;;;23.90;;
68234;SDS011;55052;52.056;5.296;2023-05-15T04:48:46;39.55;;;23.77;;
68234;SDS011;55052;52.056;5.296;2023-05-15T04:51:13;37.85;;;23.08;;
68234;SDS011;55052;52.056;5.296;2023-05-15T04:53:40;42.58;;;24.38;;
68234;SDS011;55052;52.056;5.296;2023-05-15T04:56:06;39.78;;;24.27;;
68234;SDS011;55052;52.056;5.296;2023-05-15T04:58:33;46.28;;;27.20;;
68234;SDS011;55052;52.056;5.296;2023-05-15T05:01:00;50.20;;;28.02;;
68234;SDS011;55052;52.056;5.296;2023-05-15T05:03:29;49.42;;;26.17;;
68234;SDS011;55052;52.056;5.296;2023-05-15T05:05:56;45.38;;;25.98;;
68234;SDS011;55052;52.056;5.296;2023-05-15T05:08:23;42.90;;;25.23;;
68234;SDS011;55052;52.056;5.296;2023-05-15T05:10:54;48.00;;;27.33;;
68234;SDS011;55052;52.056;5.296;2023-05-15T05:13:22;44.78;;;25.17;;
68234;SDS011;55052;52.056;5.296;2023-05-15T05:15:49;42.13;;;24.55;;
68234;SDS011;55052;52.056;5.296;2023-05-15T05:18:15;43.65;;;26.58;;
68234;SDS011;55052;52.056;5.296;2023-05-15T05:20:42;43.83;;;24.98;;
68234;SDS011;55052;52.056;5.296;2023-05-15T05:23:09;43.63;;;25.38;;
68234;SDS011;55052;52.056;5.296;2023-05-15T05:25:36;43.85;;;26.13;;
68234;SDS011;55052;52.056;5.296;2023-05-15T05:28:02;36.08;;;23.88;;
68234;SDS011;55052;52.056;5.296;2023-05-15T05:30:29;43.95;;;25.10;;
68234;SDS011;55052;52.056;5.296;2023-05-15T05:32:56;40.42;;;24.83;;
68234;SDS011;55052;52.056;5.296;2023-05-15T05:35:23;40.13;;;23.63;;
68234;SDS011;55052;52.056;5.296;2023-05-15T05:37:50;42.17;;;25.05;;
68234;SDS011;55052;52.056;5.296;2023-05-15T05:40:17;42.72;;;24.35;;
68234;SDS011;55052;52.056;5.296;2023-05-15T05:42:44;36.63;;;23.98;;
68234;SDS011;55052;52.056;5.296;2023-05-15T05:45:10;41.17;;;23.42;;
68234;SDS011;55052;52.056;5.296;2023-05-15T05:47:37;35.70;;;23.23;;
68234;SDS011;55052;52.056;5.296;2023-05-15T05:50:05;34.92;;;22.52;;
68234;SDS011;55052;52.056;5.296;2023-05-15T05:52:32;37.08;;;23.55;;
68234;SDS011;55052;52.056;5.296;2023-05-15T05:54:59;37.78;;;23.73;;
68234;SDS011;55052;52.056;5.296;2023-05-15T05:57:25;34.80;;;22.15;;
68234;SDS011;55052;52.056;5.296;2023-05-15T05:59:52;32.47;;;21.65;;
68234;SDS011;55052;52.056;5.296;2023-05-15T06:02:19;37.05;;;22.45;;
68234;SDS011;55052;52.056;5.296;2023-05-15T06:04:46;33.80;;;22.55;;
68234;SDS011;55052;52.056;5.296;2023-05-15T06:07:13;29.52;;;19.85;;
68234;SDS011;55052;52.056;5.296;2023-05-15T06:09:39;33.63;;;20.83;;
68234;SDS011;55052;52.056;5.296;2023-05-15T06:12:06;29.58;;;20.25;;
68234;SDS011;55052;52.056;5.296;2023-05-15T06:14:34;33.85;;;20.83;;
68234;SDS011;55052;52.056;5.296;2023-05-15T06:17:01;30.17;;;20.40;;
68234;SDS011;55052;52.056;5.296;2023-05-15T06:19:28;30.20;;;20.20;;
68234;SDS011;55052;52.056;5.296;2023-05-15T06:21:55;27.90;;;18.48;;
68234;SDS011;55052;52.056;5.296;2023-05-15T06:24:22;28.23;;;18.88;;
68234;SDS011;55052;52.056;5.296;2023-05-15T06:26:49;29.38;;;18.98;;
68234;SDS011;55052;52.056;5.296;2023-05-15T06:29:17;27.98;;;18.90;;
68234;SDS011;55052;52.056;5.296;2023-05-15T06:31:44;24.38;;;17.67;;
68234;SDS011;55052;52.056;5.296;2023-05-15T06:34:11;26.52;;;17.35;;
68234;SDS011;55052;52.056;5.296;2023-05-15T06:36:38;25.98;;;16.10;;
68234;SDS011;55052;52.056;5.296;2023-05-15T06:39:04;23.35;;;16.77;;
68234;SDS011;55052;52.056;5.296;2023-05-15T06:41:32;22.40;;;15.57;;
68234;SDS011;55052;52.056;5.296;2023-05-15T06:43:58;25.45;;;17.48;;
68234;SDS011;55052;52.056;5.296;2023-05-15T06:46:25;23.10;;;16.85;;
68234;SDS011;55052;52.056;5.296;2023-05-15T06:48:52;23.48;;;15.95;;
68234;SDS011;55052;52.056;5.296;2023-05-15T06:51:19;24.48;;;16.35;;
68234;SDS011;55052;52.056;5.296;2023-05-15T06:53:46;24.60;;;17.55;;
68234;SDS011;55052;52.056;5.296;2023-05-15T06:56:12;26.08;;;16.85;;
68234;SDS011;55052;52.056;5.296;2023-05-15T06:58:39;29.70;;;19.20;;
68234;SDS011;55052;52.056;5.296;2023-05-15T07:01:07;27.20;;;18.90;;
68234;SDS011;55052;52.056;5.296;2023-05-15T07:03:34;27.02;;;18.13;;
68234;SDS011;55052;52.056;5.296;2023-05-15T07:06:01;27.02;;;18.75;;
68234;SDS011;55052;52.056;5.296;2023-05-15T07:08:28;24.73;;;18.02;;
68234;SDS011;55052;52.056;5.296;2023-05-15T07:10:55;28.70;;;18.95;;
68234;SDS011;55052;52.056;5.296;2023-05-15T07:13:22;26.58;;;18.83;;
68234;SDS011;55052;52.056;5.296;2023-05-15T07:15:48;25.08;;;19.05;;
68234;SDS011;55052;52.056;5.296;2023-05-15T07:18:15;26.13;;;17.85;;
68234;SDS011;55052;52.056;5.296;2023-05-15T07:20:43;27.52;;;18.00;;
68234;SDS011;55052;52.056;5.296;2023-05-15T07:23:10;22.25;;;17.63;;
68234;SDS011;55052;52.056;5.296;2023-05-15T07:25:36;24.38;;;18.25;;
68234;SDS011;55052;52.056;5.296;2023-05-15T07:28:03;23.35;;;16.42;;
68234;SDS011;55052;52.056;5.296;2023-05-15T07:30:30;23.58;;;16.42;;
68234;SDS011;55052;52.056;5.296;2023-05-15T07:32:57;22.40;;;16.08;;
68234;SDS011;55052;52.056;5.296;2023-05-15T07:35:24;19.83;;;15.73;;
68234;SDS011;55052;52.056;5.296;2023-05-15T07:37:51;18.65;;;15.57;;
68234;SDS011;55052;52.056;5.296;2023-05-15T07:40:18;25.30;;;16.00;;
68234;SDS011;55052;52.056;5.296;2023-05-15T07:42:45;19.88;;;15.23;;
68234;SDS011;55052;52.056;5.296;2023-05-15T07:45:12;20.80;;;13.52;;
68234;SDS011;55052;52.056;5.296;2023-05-15T07:47:43;19.77;;;14.18;;
68234;SDS011;55052;52.056;5.296;2023-05-15T07:50:11;21.30;;;15.00;;
68234;SDS011;55052;52.056;5.296;2023-05-15T07:52:39;18.55;;;13.20;;
68234;SDS011;55052;52.056;5.296;2023-05-15T07:55:06;16.77;;;13.25;;
68234;SDS011;55052;52.056;5.296;2023-05-15T07:57:34;17.52;;;13.00;;
68234;SDS011;55052;52.056;5.296;2023-05-15T08:00:01;18.77;;;12.70;;
68234;SDS011;55052;52.056;5.296;2023-05-15T08:02:35;21.80;;;13.10;;
68234;SDS011;55052;52.056;5.296;2023-05-15T08:05:03;19.30;;;13.60;;
68234;SDS011;55052;52.056;5.296;2023-05-15T08:07:30;23.05;;;14.30;;
68234;SDS011;55052;52.056;5.296;2023-05-15T08:09:58;21.85;;;16.00;;
68234;SDS011;55052;52.056;5.296;2023-05-15T08:12:25;17.95;;;13.15;;
68234;SDS011;55052;52.056;5.296;2023-05-15T08:14:53;19.88;;;14.50;;
68234;SDS011;55052;52.056;5.296;2023-05-15T08:17:21;20.90;;;14.55;;
68234;SDS011;55052;52.056;5.296;2023-05-15T08:19:48;21.55;;;14.40;;
68234;SDS011;55052;52.056;5.296;2023-05-15T08:22:15;21.58;;;13.75;;
68234;SDS011;55052;52.056;5.296;2023-05-15T08:24:42;17.33;;;13.90;;
68234;SDS011;55052;52.056;5.296;2023-05-15T08:27:09;21.02;;;14.82;;
68234;SDS011;55052;52.056;5.296;2023-05-15T08:29:37;21.95;;;15.48;;
68234;SDS011;55052;52.056;5.296;2023-05-15T08:32:05;21.27;;;14.45;;
68234;SDS011;55052;52.056;5.296;2023-05-15T08:34:33;20.90;;;14.18;;
68234;SDS011;55052;52.056;5.296;2023-05-15T08:37:00;39.33;;;28.33;;
68234;SDS011;55052;52.056;5.296;2023-05-15T08:39:27;24.40;;;16.65;;
68234;SDS011;55052;52.056;5.296;2023-05-15T08:42:12;23.30;;;16.70;;
68234;SDS011;55052;52.056;5.296;2023-05-15T08:44:46;28.13;;;17.35;;
68234;SDS011;55052;52.056;5.296;2023-05-15T08:47:13;25.08;;;17.02;;
68234;SDS011;55052;52.056;5.296;2023-05-15T08:52:13;23.75;;;17.45;;
68234;SDS011;55052;52.056;5.296;2023-05-15T08:54:41;24.10;;;17.65;;
68234;SDS011;55052;52.056;5.296;2023-05-15T08:57:09;23.48;;;16.98;;
68234;SDS011;55052;52.056;5.296;2023-05-15T08:59:36;24.38;;;16.85;;
68234;SDS011;55052;52.056;5.296;2023-05-15T09:02:03;24.13;;;16.90;;
68234;SDS011;55052;52.056;5.296;2023-05-15T09:04:31;22.05;;;16.08;;
68234;SDS011;55052;52.056;5.296;2023-05-15T09:06:58;25.65;;;17.60;;
68234;SDS011;55052;52.056;5.296;2023-05-15T09:09:26;27.10;;;17.42;;
68234;SDS011;55052;52.056;5.296;2023-05-15T09:11:54;23.75;;;17.27;;
68234;SDS011;55052;52.056;5.296;2023-05-15T09:14:21;26.75;;;16.10;;
68234;SDS011;55052;52.056;5.296;2023-05-15T09:16:48;22.17;;;15.68;;
68234;SDS011;55052;52.056;5.296;2023-05-15T09:19:18;24.45;;;16.58;;
68234;SDS011;55052;52.056;5.296;2023-05-15T09:21:48;22.67;;;17.42;;
68234;SDS011;55052;52.056;5.296;2023-05-15T09:24:18;23.77;;;16.73;;
68234;SDS011;55052;52.056;5.296;2023-05-15T09:27:03;21.17;;;16.17;;
68234;SDS011;55052;52.056;5.296;2023-05-15T09:29:32;24.20;;;16.23;;
68234;SDS011;55052;52.056;5.296;2023-05-15T09:32:10;23.92;;;17.67;;
68234;SDS011;55052;52.056;5.296;2023-05-15T09:34:42;25.13;;;18.73;;
68234;SDS011;55052;52.056;5.296;2023-05-15T09:37:11;24.13;;;18.83;;
68234;SDS011;55052;52.056;5.296;2023-05-15T09:39:54;30.75;;;20.13;;
68234;SDS011;55052;52.056;5.296;2023-05-15T09:42:21;30.48;;;20.75;;
68234;SDS011;55052;52.056;5.296;2023-05-15T09:44:49;35.92;;;22.00;;
68234;SDS011;55052;52.056;5.296;2023-05-15T09:47:16;35.05;;;22.10;;
68234;SDS011;55052;52.056;5.296;2023-05-15T09:49:44;38.88;;;25.38;;
68234;SDS011;55052;52.056;5.296;2023-05-15T09:52:12;37.35;;;25.10;;
68234;SDS011;55052;52.056;5.296;2023-05-15T09:54:43;37.33;;;23.30;;
68234;SDS011;55052;52.056;5.296;2023-05-15T09:57:15;39.70;;;23.73;;
68234;SDS011;55052;52.056;5.296;2023-05-15T09:59:46;33.55;;;23.35;;
68234;SDS011;55052;52.056;5.296;2023-05-15T10:02:23;32.42;;;21.92;;
68234;SDS011;55052;52.056;5.296;2023-05-15T10:04:57;34.40;;;22.15;;
68234;SDS011;55052;52.056;5.296;2023-05-15T10:07:28;33.05;;;21.48;;
68234;SDS011;55052;52.056;5.296;2023-05-15T10:09:56;31.25;;;21.08;;
68234;SDS011;55052;52.056;5.296;2023-05-15T10:12:24;31.70;;;21.23;;
68234;SDS011;55052;52.056;5.296;2023-05-15T10:14:53;31.50;;;20.10;;
68234;SDS011;55052;52.056;5.296;2023-05-15T10:17:22;29.45;;;19.65;;
68234;SDS011;55052;52.056;5.296;2023-05-15T10:19:49;29.35;;;20.08;;
68234;SDS011;55052;52.056;5.296;2023-05-15T10:22:24;29.75;;;19.45;;
68234;SDS011;55052;52.056;5.296;2023-05-15T10:27:49;30.63;;;21.08;;
68234;SDS011;55052;52.056;5.296;2023-05-15T10:30:17;27.10;;;19.13;;
68234;SDS011;55052;52.056;5.296;2023-05-15T10:32:45;30.73;;;19.65;;
68234;SDS011;55052;52.056;5.296;2023-05-15T10:35:13;29.08;;;19.42;;
68234;SDS011;55052;52.056;5.296;2023-05-15T10:37:41;28.77;;;18.42;;
68234;SDS011;55052;52.056;5.296;2023-05-15T10:40:13;27.40;;;18.65;;
68234;SDS011;55052;52.056;5.296;2023-05-15T10:42:41;27.42;;;17.73;;
68234;SDS011;55052;52.056;5.296;2023-05-15T10:45:10;27.95;;;18.00;;
68234;SDS011;55052;52.056;5.296;2023-05-15T10:47:37;29.10;;;17.90;;
68234;SDS011;55052;52.056;5.296;2023-05-15T10:50:06;26.75;;;18.50;;
68234;SDS011;55052;52.056;5.296;2023-05-15T10:52:34;29.90;;;19.38;;
68234;SDS011;55052;52.056;5.296;2023-05-15T10:55:04;33.15;;;19.38;;
68234;SDS011;55052;52.056;5.296;2023-05-15T10:57:32;29.15;;;19.83;;
68234;SDS011;55052;52.056;5.296;2023-05-15T10:59:59;32.65;;;19.70;;
68234;SDS011;55052;52.056;5.296;2023-05-15T11:02:28;32.60;;;20.63;;
68234;SDS011;55052;52.056;5.296;2023-05-15T11:04:57;30.50;;;20.30;;
68234;SDS011;55052;52.056;5.296;2023-05-15T11:07:26;36.40;;;22.17;;
68234;SDS011;55052;52.056;5.296;2023-05-15T11:09:54;32.92;;;20.38;;
68234;SDS011;55052;52.056;5.296;2023-05-15T11:12:21;32.13;;;21.95;;
68234;SDS011;55052;52.056;5.296;2023-05-15T11:17:22;32.30;;;21.05;;
68234;SDS011;55052;52.056;5.296;2023-05-15T11:22:17;33.75;;;21.05;;
68234;SDS011;55052;52.056;5.296;2023-05-15T11:25:07;34.50;;;20.27;;
68234;SDS011;55052;52.056;5.296;2023-05-15T11:27:42;36.17;;;22.15;;
68234;SDS011;55052;52.056;5.296;2023-05-15T11:35:27;28.90;;;18.38;;
68234;SDS011;55052;52.056;5.296;2023-05-15T11:40:32;28.00;;;19.02;;
68234;SDS011;55052;52.056;5.296;2023-05-15T11:43:20;32.63;;;19.42;;
68234;SDS011;55052;52.056;5.296;2023-05-15T11:45:55;32.40;;;20.33;;
68234;SDS011;55052;52.056;5.296;2023-05-15T11:48:23;30.08;;;20.75;;
68234;SDS011;55052;52.056;5.296;2023-05-15T11:50:56;29.85;;;19.98;;
68234;SDS011;55052;52.056;5.296;2023-05-15T11:53:23;30.13;;;20.55;;
68234;SDS011;55052;52.056;5.296;2023-05-15T11:55:51;28.75;;;19.75;;
68234;SDS011;55052;52.056;5.296;2023-05-15T11:58:21;31.00;;;20.38;;
68234;SDS011;55052;52.056;5.296;2023-05-15T12:00:49;30.80;;;19.88;;
68234;SDS011;55052;52.056;5.296;2023-05-15T12:05:51;25.60;;;18.17;;
68234;SDS011;55052;52.056;5.296;2023-05-15T12:08:25;28.77;;;19.60;;
68234;SDS011;55052;52.056;5.296;2023-05-15T12:10:57;30.50;;;20.33;;
68234;SDS011;55052;52.056;5.296;2023-05-15T12:13:25;28.83;;;18.15;;
68234;SDS011;55052;52.056;5.296;2023-05-15T12:15:52;26.15;;;18.65;;
68234;SDS011;55052;52.056;5.296;2023-05-15T12:18:20;28.15;;;19.13;;
68234;SDS011;55052;52.056;5.296;2023-05-15T12:20:48;24.42;;;17.48;;
68234;SDS011;55052;52.056;5.296;2023-05-15T12:23:19;24.08;;;16.35;;
68234;SDS011;55052;52.056;5.296;2023-05-15T12:25:47;23.60;;;17.13;;
68234;SDS011;55052;52.056;5.296;2023-05-15T12:30:44;22.77;;;16.60;;
68234;SDS011;55052;52.056;5.296;2023-05-15T12:33:11;21.05;;;14.85;;
68234;SDS011;55052;52.056;5.296;2023-05-15T12:35:43;20.48;;;13.93;;
68234;SDS011;55052;52.056;5.296;2023-05-15T12:38:15;18.88;;;13.20;;
68234;SDS011;55052;52.056;5.296;2023-05-15T12:40:42;17.52;;;12.82;;
68234;SDS011;55052;52.056;5.296;2023-05-15T12:43:12;19.90;;;12.93;;
68234;SDS011;55052;52.056;5.296;2023-05-15T12:45:40;20.98;;;12.63;;
68234;SDS011;55052;52.056;5.296;2023-05-15T12:48:11;15.98;;;11.65;;
68234;SDS011;55052;52.056;5.296;2023-05-15T12:50:42;16.38;;;11.75;;
68234;SDS011;55052;52.056;5.296;2023-05-15T12:53:11;18.98;;;12.32;;
68234;SDS011;55052;52.056;5.296;2023-05-15T12:55:42;15.55;;;11.63;;
68234;SDS011;55052;52.056;5.296;2023-05-15T12:58:10;18.57;;;11.73;;
68234;SDS011;55052;52.056;5.296;2023-05-15T13:00:40;16.15;;;11.32;;
68234;SDS011;55052;52.056;5.296;2023-05-15T13:03:09;18.55;;;12.65;;
68234;SDS011;55052;52.056;5.296;2023-05-15T13:05:37;15.82;;;11.07;;
68234;SDS011;55052;52.056;5.296;2023-05-15T13:08:07;13.93;;;8.25;;
68234;SDS011;55052;52.056;5.296;2023-05-15T13:10:34;12.25;;;7.47;;
68234;SDS011;55052;52.056;5.296;2023-05-15T13:13:02;14.63;;;7.22;;
68234;SDS011;55052;52.056;5.296;2023-05-15T13:15:42;14.65;;;7.18;;
68234;SDS011;55052;52.056;5.296;2023-05-15T13:18:11;13.30;;;7.47;;
68234;SDS011;55052;52.056;5.296;2023-05-15T13:20:39;13.80;;;8.02;;
68234;SDS011;55052;52.056;5.296;2023-05-15T13:23:08;18.73;;;9.88;;
68234;SDS011;55052;52.056;5.296;2023-05-15T13:25:36;18.75;;;10.27;;
68234;SDS011;55052;52.056;5.296;2023-05-15T13:28:04;18.73;;;9.90;;
68234;SDS011;55052;52.056;5.296;2023-05-15T13:30:32;16.02;;;9.82;;
68234;SDS011;55052;52.056;5.296;2023-05-15T13:33:00;18.33;;;10.63;;
68234;SDS011;55052;52.056;5.296;2023-05-15T13:35:27;21.05;;;10.68;;
68234;SDS011;55052;52.056;5.296;2023-05-15T13:37:54;19.25;;;12.20;;
68234;SDS011;55052;52.056;5.296;2023-05-15T13:40:22;18.17;;;10.45;;
68234;SDS011;55052;52.056;5.296;2023-05-15T13:42:49;17.27;;;9.20;;
68234;SDS011;55052;52.056;5.296;2023-05-15T13:45:16;15.80;;;9.30;;
68234;SDS011;55052;52.056;5.296;2023-05-15T13:47:43;15.40;;;8.68;;
68234;SDS011;55052;52.056;5.296;2023-05-15T13:50:11;15.43;;;9.20;;
68234;SDS011;55052;52.056;5.296;2023-05-15T13:52:39;14.98;;;8.45;;
68234;SDS011;55052;52.056;5.296;2023-05-15T13:55:07;12.52;;;7.93;;
68234;SDS011;55052;52.056;5.296;2023-05-15T13:57:37;13.20;;;6.88;;
68234;SDS011;55052;52.056;5.296;2023-05-15T14:00:06;12.48;;;7.07;;
68234;SDS011;55052;52.056;5.296;2023-05-15T14:02:39;11.07;;;6.68;;
68234;SDS011;55052;52.056;5.296;2023-05-15T14:05:07;10.85;;;6.53;;
68234;SDS011;55052;52.056;5.296;2023-05-15T14:07:36;10.00;;;6.40;;
68234;SDS011;55052;52.056;5.296;2023-05-15T14:10:03;13.13;;;5.65;;
68234;SDS011;55052;52.056;5.296;2023-05-15T14:12:30;8.32;;;4.88;;
68234;SDS011;55052;52.056;5.296;2023-05-15T14:14:57;8.35;;;4.97;;
68234;SDS011;55052;52.056;5.296;2023-05-15T14:17:24;7.65;;;4.57;;
68234;SDS011;55052;52.056;5.296;2023-05-15T14:19:53;9.73;;;5.18;;
68234;SDS011;55052;52.056;5.296;2023-05-15T14:22:19;12.00;;;4.50;;
68234;SDS011;55052;52.056;5.296;2023-05-15T14:27:17;9.30;;;4.40;;
68234;SDS011;55052;52.056;5.296;2023-05-15T14:29:44;13.38;;;4.55;;
68234;SDS011;55052;52.056;5.296;2023-05-15T14:32:11;10.48;;;4.15;;
68234;SDS011;55052;52.056;5.296;2023-05-15T14:34:39;8.10;;;4.47;;
68234;SDS011;55052;52.056;5.296;2023-05-15T14:37:06;11.65;;;4.45;;
68234;SDS011;55052;52.056;5.296;2023-05-15T14:39:32;8.65;;;4.13;;
68234;SDS011;55052;52.056;5.296;2023-05-15T14:41:59;8.50;;;3.90;;
68234;SDS011;55052;52.056;5.296;2023-05-15T14:44:26;8.38;;;3.58;;
68234;SDS011;55052;52.056;5.296;2023-05-15T14:47:09;9.30;;;3.97;;
68234;SDS011;55052;52.056;5.296;2023-05-15T14:49:40;9.52;;;3.97;;
68234;SDS011;55052;52.056;5.296;2023-05-15T14:52:07;10.45;;;3.55;;
68234;SDS011;55052;52.056;5.296;2023-05-15T14:54:35;9.80;;;3.60;;
68234;SDS011;55052;52.056;5.296;2023-05-15T14:57:02;14.77;;;3.97;;
68234;SDS011;55052;52.056;5.296;2023-05-15T14:59:29;8.35;;;3.58;;
68234;SDS011;55052;52.056;5.296;2023-05-15T15:01:56;8.70;;;3.78;;
68234;SDS011;55052;52.056;5.296;2023-05-15T15:04:23;8.00;;;3.58;;
68234;SDS011;55052;52.056;5.296;2023-05-15T15:06:52;5.70;;;3.42;;
68234;SDS011;55052;52.056;5.296;2023-05-15T15:09:22;6.53;;;3.28;;
68234;SDS011;55052;52.056;5.296;2023-05-15T15:11:51;7.72;;;3.30;;
68234;SDS011;55052;52.056;5.296;2023-05-15T15:14:18;8.98;;;3.42;;
68234;SDS011;55052;52.056;5.296;2023-05-15T15:16:45;7.35;;;2.80;;